LOWI/INN METAR and TAF weather

Enter ICAO airport designator
Station Type Date Time Source
LOWI METAR 2018/12/19 02:50 UTC NOAA

LOWI 190250Z AUTO VRB02KT 9999 NSC M04/M07 Q1021


Station Type Date Time Source
LOWI Decoded METAR 2018/12/19 02:50 UTC NOAA

Innsbruck-Flughafen, Austria (LOWI) 47-16N 011-21E 593M
Dec 18, 2018 - 09:50 PM EST / 2018.12.19 0250 UTC
Wind: Variable at 2 MPH (2 KT):0
Visibility: greater than 7 mile(s):0
Temperature: 24 F (-4 C)
Dew Point: 19 F (-7 C)
Relative Humidity: 79%
Pressure (altimeter): 30.15 in. Hg (1021 hPa)
ob: LOWI 190250Z AUTO VRB02KT 9999 NSC M04/M07 Q1021
cycle: 3

Station Type Date Time Source
LOWI TAF 2018/12/18 18:21 UTC NOAA

TAF LOWI 181715Z 1818/1918 27007KT CAVOK TX03/1913Z TNM05/1904Z


Example: see airport list